createdAt,value
2023-03-26T00:00:09.418Z,47.50
2023-03-26T00:02:58.296Z,47.70
2023-03-26T00:05:48.290Z,47.50
2023-03-26T00:08:37.566Z,47.60
2023-03-26T00:11:28.829Z,47.50
2023-03-26T00:14:17.742Z,47.50
2023-03-26T00:17:06.213Z,47.40
2023-03-26T00:19:54.859Z,47.30
2023-03-26T00:22:43.214Z,47.30
2023-03-26T00:25:32.053Z,47.20
2023-03-26T00:28:21.739Z,47.30
2023-03-26T00:31:13.191Z,47.20
2023-03-26T00:34:03.696Z,47.10
2023-03-26T00:36:54.669Z,47.10
2023-03-26T00:39:44.688Z,47.10
2023-03-26T00:42:33.270Z,47.10
2023-03-26T00:45:23.266Z,47.10
2023-03-26T00:48:11.682Z,47.10
2023-03-26T00:50:59.974Z,47.00
2023-03-26T00:53:50.210Z,47.00
2023-03-26T00:56:38.797Z,46.90
2023-03-26T00:59:30.552Z,47.00
2023-03-26T01:02:21.542Z,47.00
2023-03-26T01:05:43.629Z,46.90
2023-03-26T01:08:33.998Z,47.00
2023-03-26T01:11:24.228Z,46.80
2023-03-26T01:14:15.741Z,46.80
2023-03-26T01:17:07.174Z,46.70
2023-03-26T01:20:12.358Z,46.70
2023-03-26T01:23:05.331Z,46.60
2023-03-26T01:26:02.761Z,46.60
2023-03-26T01:28:55.693Z,46.60
2023-03-26T01:31:52.578Z,46.70
2023-03-26T01:34:53.535Z,46.80
2023-03-26T01:37:52.847Z,46.90
2023-03-26T01:40:49.453Z,47.00
2023-03-26T01:43:44.886Z,47.00
2023-03-26T01:46:36.352Z,47.00
2023-03-26T01:49:24.652Z,47.10
2023-03-26T01:52:16.570Z,47.00
2023-03-26T01:55:05.516Z,46.90
2023-03-26T01:58:04.926Z,47.00
2023-03-26T02:01:02.148Z,46.90
2023-03-26T02:03:54.783Z,46.80
2023-03-26T02:06:47.424Z,46.80
2023-03-26T02:09:45.825Z,46.80
2023-03-26T02:12:35.856Z,46.90
2023-03-26T02:15:24.618Z,46.90
2023-03-26T02:18:14.306Z,46.90
2023-03-26T02:21:02.684Z,47.00
2023-03-26T02:24:02.758Z,47.00
2023-03-26T02:26:51.458Z,47.00
2023-03-26T02:29:40.965Z,47.00
2023-03-26T02:32:29.454Z,47.00
2023-03-26T02:35:19.449Z,47.00
2023-03-26T02:38:10.558Z,47.10
2023-03-26T02:40:58.840Z,47.10
2023-03-26T02:43:52.316Z,47.10
2023-03-26T02:46:40.675Z,47.20
2023-03-26T02:49:29.111Z,47.20
2023-03-26T02:52:18.858Z,47.20
2023-03-26T02:55:07.652Z,47.30
2023-03-26T02:57:56.456Z,47.30
2023-03-26T03:00:44.780Z,47.20
2023-03-26T03:03:34.584Z,47.20
2023-03-26T03:06:22.892Z,47.10
2023-03-26T03:09:13.053Z,47.20
2023-03-26T03:12:01.548Z,47.20
2023-03-26T03:14:49.828Z,47.20
2023-03-26T03:17:38.052Z,47.20
2023-03-26T03:20:26.388Z,47.30
2023-03-26T03:23:16.140Z,47.30
2023-03-26T03:26:06.843Z,47.30
2023-03-26T03:28:55.866Z,47.30
2023-03-26T03:31:44.071Z,47.40
2023-03-26T03:34:32.319Z,47.30
2023-03-26T03:37:20.940Z,47.30
2023-03-26T03:40:10.937Z,47.30
2023-03-26T03:43:00.739Z,47.30
2023-03-26T03:45:48.939Z,47.20
2023-03-26T03:48:38.388Z,47.20
2023-03-26T03:51:26.815Z,47.30
2023-03-26T03:54:15.138Z,47.30
2023-03-26T03:57:03.540Z,47.40
2023-03-26T03:59:53.291Z,47.40
2023-03-26T04:02:43.119Z,47.40
2023-03-26T04:05:31.987Z,47.50
2023-03-26T04:08:20.324Z,47.40
2023-03-26T04:11:08.608Z,47.40
2023-03-26T04:13:56.738Z,47.40
2023-03-26T04:16:46.377Z,47.40
2023-03-26T04:19:34.687Z,47.40
2023-03-26T04:22:23.649Z,47.30
2023-03-26T04:25:12.992Z,47.30
2023-03-26T04:28:06.522Z,47.30
2023-03-26T04:30:55.257Z,47.40
2023-03-26T04:33:47.519Z,47.40
2023-03-26T04:36:35.817Z,47.40
2023-03-26T04:39:29.070Z,47.50
2023-03-26T04:42:19.961Z,47.50
2023-03-26T04:45:11.288Z,47.40
2023-03-26T04:47:59.953Z,47.40
2023-03-26T04:50:50.402Z,47.50
2023-03-26T04:53:38.605Z,47.40
2023-03-26T04:56:35.859Z,47.30
2023-03-26T04:59:30.421Z,47.40
2023-03-26T05:02:18.977Z,47.30
2023-03-26T05:05:07.859Z,47.30
2023-03-26T05:07:57.429Z,47.30
2023-03-26T05:10:45.697Z,47.30
2023-03-26T05:13:34.013Z,47.40
2023-03-26T05:16:22.524Z,47.30
2023-03-26T05:19:10.733Z,47.30
2023-03-26T05:21:58.938Z,47.30
2023-03-26T05:24:48.597Z,47.30
2023-03-26T05:27:36.808Z,47.40
2023-03-26T05:30:25.499Z,47.30
2023-03-26T05:33:14.248Z,47.30
2023-03-26T05:36:03.666Z,47.40
2023-03-26T05:38:52.445Z,47.40
2023-03-26T05:41:42.222Z,47.50
2023-03-26T05:44:30.791Z,47.50
2023-03-26T05:47:19.385Z,47.50
2023-03-26T05:50:09.178Z,47.50
2023-03-26T05:52:57.492Z,47.50
2023-03-26T05:55:47.173Z,47.40
2023-03-26T05:58:37.996Z,47.30
2023-03-26T06:01:26.317Z,47.30
2023-03-26T06:04:16.187Z,47.30
2023-03-26T06:07:04.711Z,47.30
2023-03-26T06:09:53.283Z,47.30
2023-03-26T06:12:41.689Z,47.30
2023-03-26T06:15:31.330Z,47.40
2023-03-26T06:18:20.729Z,47.30
2023-03-26T06:21:09.332Z,47.30
2023-03-26T06:23:57.663Z,47.30
2023-03-26T06:26:45.830Z,47.30
2023-03-26T06:29:34.112Z,47.20
2023-03-26T06:32:23.947Z,47.20
2023-03-26T06:35:12.293Z,47.10
2023-03-26T06:38:00.805Z,47.00
2023-03-26T06:40:49.004Z,46.80
2023-03-26T06:43:39.073Z,46.80
2023-03-26T06:46:27.565Z,46.80
2023-03-26T06:49:17.169Z,46.80
2023-03-26T06:52:05.846Z,46.80
2023-03-26T06:54:54.054Z,46.80
2023-03-26T06:57:44.929Z,46.90
2023-03-26T07:00:33.157Z,46.90
2023-03-26T07:03:21.951Z,47.00
2023-03-26T07:06:11.887Z,47.10
2023-03-26T07:09:00.340Z,46.80
2023-03-26T07:11:48.644Z,46.70
2023-03-26T07:14:38.804Z,46.50
2023-03-26T07:17:27.389Z,46.40
2023-03-26T07:20:15.925Z,46.30
2023-03-26T07:23:06.559Z,46.30
2023-03-26T07:25:55.611Z,46.20
2023-03-26T07:29:03.834Z,46.10
2023-03-26T07:31:58.578Z,45.90
2023-03-26T07:34:54.375Z,45.60
2023-03-26T07:37:53.812Z,45.50
2023-03-26T07:40:54.481Z,45.20
2023-03-26T07:43:57.420Z,45.50
2023-03-26T07:46:47.860Z,45.40
2023-03-26T07:49:37.667Z,45.00
2023-03-26T07:52:26.688Z,44.90
2023-03-26T07:55:17.012Z,45.00
2023-03-26T07:58:23.740Z,44.90
2023-03-26T08:01:19.104Z,44.80
2023-03-26T08:04:33.700Z,44.80
2023-03-26T08:07:32.826Z,44.70
2023-03-26T08:10:27.187Z,44.70
2023-03-26T08:13:26.527Z,44.80
2023-03-26T08:16:23.272Z,44.70
2023-03-26T08:19:25.501Z,44.90
2023-03-26T08:22:20.886Z,45.00
2023-03-26T08:25:23.733Z,44.70
2023-03-26T08:28:23.498Z,44.70
2023-03-26T08:31:15.363Z,44.80
2023-03-26T08:34:03.749Z,44.70
2023-03-26T08:36:52.132Z,44.60
2023-03-26T08:39:42.185Z,44.60
2023-03-26T08:43:14.438Z,44.60
2023-03-26T08:46:37.703Z,44.50
2023-03-26T08:50:00.885Z,44.60
2023-03-26T08:53:14.734Z,44.70
2023-03-26T08:56:09.860Z,44.60
2023-03-26T08:59:35.807Z,44.60
2023-03-26T09:03:08.782Z,44.40
2023-03-26T09:06:28.762Z,44.20
2023-03-26T09:09:55.900Z,44.40
2023-03-26T09:13:21.381Z,44.20
2023-03-26T09:16:42.950Z,44.20
2023-03-26T09:20:01.631Z,44.20
2023-03-26T09:23:02.551Z,44.10
2023-03-26T09:26:20.456Z,44.10
2023-03-26T09:29:35.481Z,44.00
2023-03-26T09:32:57.430Z,44.20
2023-03-26T09:36:12.724Z,45.80
2023-03-26T09:39:10.615Z,46.50
2023-03-26T09:42:11.844Z,46.30
2023-03-26T09:45:33.423Z,47.30
2023-03-26T09:48:36.287Z,46.90
2023-03-26T09:51:58.148Z,46.50
2023-03-26T09:55:15.565Z,46.40
2023-03-26T09:58:31.144Z,46.10
2023-03-26T10:01:25.909Z,45.70
2023-03-26T10:04:40.422Z,45.60
2023-03-26T10:07:57.717Z,45.50
2023-03-26T10:10:53.389Z,45.40
2023-03-26T10:13:55.841Z,45.40
2023-03-26T10:16:55.003Z,45.20
2023-03-26T10:19:53.946Z,45.20
2023-03-26T10:22:56.854Z,45.10
2023-03-26T10:26:03.141Z,44.70
2023-03-26T10:29:12.696Z,44.60
2023-03-26T10:32:15.405Z,44.60
2023-03-26T10:35:18.642Z,44.70
2023-03-26T10:38:17.357Z,44.60
2023-03-26T10:41:14.326Z,44.60
2023-03-26T10:44:19.673Z,44.60
2023-03-26T10:47:26.306Z,44.60
2023-03-26T10:50:29.862Z,44.50
2023-03-26T10:53:35.176Z,44.50
2023-03-26T10:56:30.080Z,44.40
2023-03-26T10:59:19.628Z,44.40
2023-03-26T11:02:29.456Z,44.30
2023-03-26T11:05:34.639Z,44.40
2023-03-26T11:08:32.995Z,45.90
2023-03-26T11:11:28.535Z,45.90
2023-03-26T11:14:33.832Z,46.50
2023-03-26T11:17:40.008Z,46.20
2023-03-26T11:20:38.630Z,45.80
2023-03-26T11:23:36.893Z,45.60
2023-03-26T11:26:30.093Z,45.40
2023-03-26T11:29:33.621Z,45.20
2023-03-26T11:32:25.801Z,44.60
2023-03-26T11:35:39.864Z,43.50
2023-03-26T11:38:37.493Z,42.80
2023-03-26T11:41:30.893Z,42.50
2023-03-26T11:44:23.796Z,42.10
2023-03-26T11:47:15.679Z,42.40
2023-03-26T11:50:07.207Z,42.80
2023-03-26T11:52:58.339Z,42.80
2023-03-26T11:55:58.705Z,42.20
2023-03-26T11:58:54.870Z,42.00
2023-03-26T12:01:51.125Z,42.00
2023-03-26T12:04:41.663Z,41.90
2023-03-26T12:07:32.622Z,41.60
2023-03-26T12:10:38.023Z,41.70
2023-03-26T12:13:35.784Z,41.20
2023-03-26T12:16:24.866Z,41.30
2023-03-26T12:19:20.939Z,41.20
2023-03-26T12:22:30.730Z,41.10
2023-03-26T12:25:21.323Z,41.00
2023-03-26T12:28:20.041Z,40.60
2023-03-26T12:31:19.135Z,40.00
2023-03-26T12:34:14.720Z,40.10
2023-03-26T12:37:04.733Z,40.00
2023-03-26T12:40:15.170Z,39.80
2023-03-26T12:44:52.617Z,39.10
2023-03-26T12:47:57.074Z,39.10
2023-03-26T12:49:41.369Z,38.90
2023-03-26T12:52:57.610Z,38.80
2023-03-26T12:55:57.225Z,38.10
2023-03-26T12:59:11.817Z,38.20
2023-03-26T13:02:21.056Z,38.00
2023-03-26T13:05:24.579Z,38.20
2023-03-26T13:08:42.307Z,38.70
2023-03-26T13:11:37.900Z,38.60
2023-03-26T13:14:44.221Z,38.80
2023-03-26T13:17:41.464Z,38.60
2023-03-26T13:20:38.563Z,38.60
2023-03-26T13:23:38.050Z,38.40
2023-03-26T13:26:43.855Z,38.40
2023-03-26T13:29:39.513Z,38.10
2023-03-26T13:32:40.255Z,38.30
2023-03-26T13:35:34.239Z,37.90
2023-03-26T13:38:32.078Z,37.90
2023-03-26T13:41:27.141Z,38.00
2023-03-26T13:44:24.888Z,38.00
2023-03-26T13:47:17.816Z,37.80
2023-03-26T13:50:19.594Z,37.80
2023-03-26T13:53:14.601Z,37.40
2023-03-26T13:56:03.224Z,37.70
2023-03-26T13:58:57.393Z,37.70
2023-03-26T14:01:51.266Z,37.40
2023-03-26T14:04:43.898Z,37.50
2023-03-26T14:07:39.278Z,37.30
2023-03-26T14:10:34.390Z,37.50
2023-03-26T14:13:26.210Z,37.60
2023-03-26T14:16:19.336Z,37.60
2023-03-26T14:19:34.098Z,37.50
2023-03-26T14:22:30.702Z,37.00
2023-03-26T14:25:31.313Z,37.20
2023-03-26T14:28:38.388Z,36.80
2023-03-26T14:31:30.934Z,36.40
2023-03-26T14:34:36.135Z,36.50
2023-03-26T14:37:53.881Z,36.10
2023-03-26T14:40:58.432Z,36.20
2023-03-26T14:44:47.667Z,36.40
2023-03-26T14:47:43.308Z,36.20
2023-03-26T14:50:56.925Z,36.50
2023-03-26T14:53:48.630Z,36.30
2023-03-26T14:56:50.972Z,36.40
2023-03-26T15:00:21.221Z,36.10
2023-03-26T15:03:56.330Z,36.00
2023-03-26T15:07:23.152Z,36.00
2023-03-26T15:10:35.768Z,36.10
2023-03-26T15:13:48.204Z,36.30
2023-03-26T15:17:10.739Z,36.00
2023-03-26T15:20:32.770Z,36.20
2023-03-26T15:23:53.060Z,36.70
2023-03-26T15:27:26.852Z,36.60
2023-03-26T15:31:00.956Z,36.50
2023-03-26T15:34:18.470Z,36.20
2023-03-26T15:37:45.264Z,36.20
2023-03-26T15:40:45.636Z,36.10
2023-03-26T15:44:24.042Z,36.30
2023-03-26T15:47:36.747Z,36.20
2023-03-26T15:50:33.865Z,36.40
2023-03-26T15:53:33.726Z,36.20
2023-03-26T15:56:32.936Z,36.20
2023-03-26T15:59:34.980Z,36.30
2023-03-26T16:02:38.656Z,36.40
2023-03-26T16:05:47.602Z,36.50
2023-03-26T16:08:47.239Z,36.60
2023-03-26T16:11:54.010Z,36.80
2023-03-26T16:14:48.762Z,36.90
2023-03-26T16:18:12.169Z,37.10
2023-03-26T16:21:32.010Z,37.10
2023-03-26T16:24:27.908Z,37.30
2023-03-26T16:27:33.601Z,37.40
2023-03-26T16:30:31.706Z,37.40
2023-03-26T16:33:23.544Z,37.50
2023-03-26T16:36:34.844Z,37.60
2023-03-26T16:39:26.520Z,37.50
2023-03-26T16:42:37.426Z,37.60
2023-03-26T16:45:33.472Z,37.50
2023-03-26T16:48:30.534Z,37.50
2023-03-26T16:51:28.452Z,37.50
2023-03-26T16:54:25.496Z,37.60
2023-03-26T16:57:23.838Z,37.60
2023-03-26T17:00:36.660Z,37.70
2023-03-26T17:03:39.478Z,37.70
2023-03-26T17:07:14.119Z,37.80
2023-03-26T17:10:16.062Z,37.80
2023-03-26T17:13:10.619Z,37.90
2023-03-26T17:16:10.728Z,37.90
2023-03-26T17:19:05.400Z,38.00
2023-03-26T17:22:00.150Z,38.00
2023-03-26T17:24:54.515Z,38.10
2023-03-26T17:27:52.056Z,38.20
2023-03-26T17:31:17.739Z,38.20
2023-03-26T17:34:34.958Z,38.30
2023-03-26T17:37:38.362Z,38.30
2023-03-26T17:40:44.675Z,38.20
2023-03-26T17:43:44.982Z,38.20
2023-03-26T17:46:37.749Z,38.20
2023-03-26T17:49:31.274Z,38.20
2023-03-26T17:52:25.375Z,38.20
2023-03-26T17:55:18.468Z,38.30
2023-03-26T17:58:18.697Z,38.70
2023-03-26T18:01:15.852Z,38.90
2023-03-26T18:04:08.068Z,39.00
2023-03-26T18:07:18.432Z,39.10
2023-03-26T18:10:28.875Z,39.10
2023-03-26T18:13:40.397Z,39.10
2023-03-26T18:16:34.789Z,39.10
2023-03-26T18:19:25.026Z,39.00
2023-03-26T18:22:20.579Z,39.00
2023-03-26T18:25:26.330Z,39.00
2023-03-26T18:28:16.534Z,41.40
2023-03-26T18:31:18.703Z,42.00
2023-03-26T18:34:18.576Z,42.20
2023-03-26T18:37:16.650Z,41.90
2023-03-26T18:40:12.924Z,41.80
2023-03-26T18:43:01.595Z,41.40
2023-03-26T18:45:51.826Z,40.90
2023-03-26T18:48:40.578Z,40.70
2023-03-26T18:51:31.884Z,40.50
2023-03-26T18:54:22.002Z,40.20
2023-03-26T18:57:15.871Z,39.90
2023-03-26T19:00:20.725Z,39.70
2023-03-26T19:03:09.831Z,39.20
2023-03-26T19:05:59.151Z,39.20
2023-03-26T19:08:49.686Z,38.90
2023-03-26T19:11:40.277Z,38.80
2023-03-26T19:14:28.956Z,38.60
2023-03-26T19:17:17.375Z,38.60
2023-03-26T19:20:10.050Z,42.40
2023-03-26T19:22:59.010Z,43.80
2023-03-26T19:25:51.153Z,43.70
2023-03-26T19:28:42.862Z,43.00
2023-03-26T19:31:34.995Z,42.20
2023-03-26T19:34:27.366Z,41.70
2023-03-26T19:37:22.027Z,41.30
2023-03-26T19:40:18.577Z,43.80
2023-03-26T19:43:11.702Z,43.10
2023-03-26T19:46:01.380Z,42.50
2023-03-26T19:48:53.446Z,42.00
2023-03-26T19:51:42.322Z,41.50
2023-03-26T19:54:31.280Z,41.00
2023-03-26T19:57:19.946Z,42.10
2023-03-26T20:00:14.348Z,41.40
2023-03-26T20:03:03.478Z,41.00
2023-03-26T20:05:51.981Z,40.70
2023-03-26T20:08:41.006Z,40.30
2023-03-26T20:11:34.312Z,40.10
2023-03-26T20:14:26.270Z,39.90
2023-03-26T20:17:18.679Z,39.80
2023-03-26T20:20:12.011Z,39.60
2023-03-26T20:23:00.275Z,39.50
2023-03-26T20:25:52.034Z,39.90
2023-03-26T20:28:47.751Z,41.90
2023-03-26T20:31:37.669Z,43.90
2023-03-26T20:34:27.998Z,43.60
2023-03-26T20:37:16.866Z,42.50
2023-03-26T20:40:07.130Z,42.00
2023-03-26T20:42:55.541Z,41.50
2023-03-26T20:45:43.936Z,41.00
2023-03-26T20:48:32.221Z,40.60
2023-03-26T20:51:21.912Z,40.30
2023-03-26T20:54:15.701Z,40.00
2023-03-26T20:57:04.236Z,39.80
2023-03-26T20:59:54.413Z,39.60
2023-03-26T21:02:43.370Z,39.40
2023-03-26T21:05:32.410Z,39.30
2023-03-26T21:08:30.205Z,39.30
2023-03-26T21:11:26.788Z,39.10
2023-03-26T21:14:21.912Z,39.10
2023-03-26T21:17:15.782Z,39.00
2023-03-26T21:20:11.980Z,38.90
2023-03-26T21:23:08.940Z,38.80
2023-03-26T21:26:04.103Z,38.80
2023-03-26T21:28:54.007Z,38.70
2023-03-26T21:31:42.858Z,38.60
2023-03-26T21:34:33.036Z,38.40
2023-03-26T21:37:22.540Z,38.40
2023-03-26T21:40:16.771Z,38.40
2023-03-26T21:43:07.555Z,38.20
2023-03-26T21:45:57.571Z,38.20
2023-03-26T21:48:46.554Z,38.10
2023-03-26T21:51:35.526Z,38.20
2023-03-26T21:54:26.305Z,38.20
2023-03-26T21:57:32.934Z,38.20
2023-03-26T22:00:30.739Z,38.20
2023-03-26T22:03:36.548Z,38.20
2023-03-26T22:06:32.331Z,38.10
2023-03-26T22:09:30.117Z,38.10
2023-03-26T22:12:25.703Z,38.10
2023-03-26T22:15:14.923Z,38.10
2023-03-26T22:18:05.476Z,38.00
2023-03-26T22:20:54.364Z,38.00
2023-03-26T22:23:43.566Z,37.90
2023-03-26T22:26:32.529Z,37.90
2023-03-26T22:29:21.614Z,37.90
2023-03-26T22:32:10.693Z,38.00
2023-03-26T22:35:00.717Z,38.00
2023-03-26T22:37:49.301Z,38.00
2023-03-26T22:40:37.858Z,38.00
2023-03-26T22:43:26.327Z,38.10
2023-03-26T22:46:15.443Z,38.00
2023-03-26T22:49:04.239Z,38.00
2023-03-26T22:51:54.151Z,38.00
2023-03-26T22:54:42.632Z,38.00
2023-03-26T22:57:31.089Z,38.00
2023-03-26T23:00:20.088Z,38.00
2023-03-26T23:03:08.498Z,38.00
2023-03-26T23:05:58.144Z,38.00
2023-03-26T23:08:47.855Z,38.10
2023-03-26T23:11:36.398Z,38.20
2023-03-26T23:14:24.927Z,38.20
2023-03-26T23:17:14.729Z,38.30
2023-03-26T23:20:06.148Z,38.30
2023-03-26T23:22:54.830Z,38.30
2023-03-26T23:25:46.802Z,38.20
2023-03-26T23:28:36.342Z,38.20
2023-03-26T23:31:25.405Z,38.20
2023-03-26T23:34:14.259Z,38.20
2023-03-26T23:37:03.013Z,38.20
2023-03-26T23:39:51.319Z,38.20
2023-03-26T23:42:40.944Z,38.10
2023-03-26T23:45:29.277Z,38.20
2023-03-26T23:48:22.247Z,38.20
2023-03-26T23:51:12.356Z,38.20
2023-03-26T23:54:01.594Z,38.20
2023-03-26T23:56:50.158Z,38.40
2023-03-26T23:59:41.392Z,38.40
